Time;durP1;ratioP1;P1;durP2;ratioP2;P2;SDS_P1;SDS_P2;PMS_P1;PMS_P2;Temp;Humidity;BMP_temperature;BMP_pressure;BME280_temperature;BME280_humidity;BME280_pressure;Samples;Min_cycle;Max_cycle;Signal;HPM_P1;HPM_P2
2022/05/24 00:01:32;;;;;;;2.17;0.75;;;;;;;9.45;89.09;99040.66;6248636;22;20627;-71
2022/05/24 00:03:59;;;;;;;1.50;0.80;;;;;;;9.39;89.91;99030.94;6248490;22;20008;-71
2022/05/24 00:06:27;;;;;;;0.57;0.47;;;;;;;9.31;89.94;99028.84;6224727;22;20012;-71
2022/05/24 00:08:53;;;;;;;3.30;0.65;;;;;;;9.23;90.51;99033.84;6249190;22;20046;-71
2022/05/24 00:11:19;;;;;;;0.70;0.60;;;;;;;9.22;90.94;99037.66;6222622;22;20443;-70
2022/05/24 00:13:44;;;;;;;1.95;0.60;;;;;;;9.24;91.32;99040.09;6224954;22;20019;-72
2022/05/24 00:16:10;;;;;;;1.05;0.47;;;;;;;9.27;91.70;99039.50;6198981;22;20015;-70
2022/05/24 00:18:35;;;;;;;1.60;0.90;;;;;;;9.31;91.71;99043.28;6250999;22;20008;-72
2022/05/24 00:21:04;;;;;;;1.40;0.65;;;;;;;9.33;92.60;99038.38;6223402;22;20041;-71
2022/05/24 00:23:31;;;;;;;1.63;0.73;;;;;;;9.34;91.92;99039.16;6276903;22;20030;-70
2022/05/24 00:26:01;;;;;;;1.58;0.68;;;;;;;9.38;92.33;99034.75;6247010;22;20007;-69
2022/05/24 00:28:29;;;;;;;2.08;1.00;;;;;;;9.39;91.89;99036.38;6248353;22;20074;-70
2022/05/24 00:30:55;;;;;;;1.67;0.68;;;;;;;9.44;91.89;99039.03;6274516;22;19999;-70
2022/05/24 00:33:21;;;;;;;1.30;0.77;;;;;;;9.44;91.87;99033.56;6247785;22;20011;-70
2022/05/24 00:35:47;;;;;;;0.93;0.73;;;;;;;9.44;91.71;99045.28;6249529;22;20007;-70
2022/05/24 00:38:19;;;;;;;1.50;0.85;;;;;;;9.40;92.23;99044.28;6222338;22;20013;-71
2022/05/24 00:40:45;;;;;;;0.93;0.70;;;;;;;9.35;92.19;99047.06;6275524;22;20430;-70
2022/05/24 00:43:28;;;;;;;1.55;0.70;;;;;;;9.15;92.31;99030.94;6247881;22;20011;-69
2022/05/24 00:46:00;;;;;;;1.23;0.70;;;;;;;9.09;93.02;99033.72;6277856;22;19984;-75
2022/05/24 00:48:36;;;;;;;6.15;0.85;;;;;;;8.96;93.01;99033.59;6278721;22;19991;-73
2022/05/24 00:51:06;;;;;;;0.47;0.47;;;;;;;8.81;93.00;99029.94;6255438;22;19999;-75
2022/05/24 00:53:39;;;;;;;1.20;0.70;;;;;;;8.70;94.10;99026.50;6254292;22;20008;-75
2022/05/24 00:56:18;;;;;;;1.33;0.68;;;;;;;8.64;94.86;99026.84;6254849;22;20505;-76
2022/05/24 00:58:53;;;;;;;1.17;0.60;;;;;;;8.58;95.17;99017.09;6279939;22;20000;-75
2022/05/24 01:01:31;;;;;;;2.53;0.80;;;;;;;8.66;95.42;99030.91;6229111;22;20056;-76
2022/05/24 01:03:57;;;;;;;2.40;0.70;;;;;;;8.69;95.09;99029.53;6252953;22;20008;-75
2022/05/24 01:06:23;;;;;;;3.20;0.50;;;;;;;8.74;95.48;99032.19;6253103;22;20002;-75
2022/05/24 01:08:49;;;;;;;1.20;0.65;;;;;;;8.79;94.50;99032.16;6252142;22;20023;-75
2022/05/24 01:11:16;;;;;;;0.88;0.55;;;;;;;8.84;95.25;99031.28;6252369;22;20026;-75
2022/05/24 01:13:43;;;;;;;4.88;0.75;;;;;;;8.90;94.09;99032.84;6250966;22;20020;-75
2022/05/24 01:16:09;;;;;;;0.70;0.57;;;;;;;8.89;94.45;99026.59;6198856;22;20008;-75
2022/05/24 01:18:35;;;;;;;0.57;0.55;;;;;;;8.95;93.89;99037.41;6256268;22;20587;-77
2022/05/24 01:21:08;;;;;;;0.63;0.60;;;;;;;8.89;93.50;99026.59;6236880;22;20008;-76
2022/05/24 01:23:37;;;;;;;3.03;1.10;;;;;;;8.98;93.74;99036.84;6261686;22;20374;-76
2022/05/24 01:26:14;;;;;;;2.00;0.77;;;;;;;9.03;93.60;99036.78;6285855;22;20083;-77
2022/05/24 01:28:59;;;;;;;3.33;0.90;;;;;;;9.09;93.49;99041.09;6285980;22;20011;-76
2022/05/24 01:36:09;;;;;;;4.65;0.95;;;;;;;9.09;93.47;99035.63;6261283;22;20003;-76
2022/05/24 01:36:57;;;;;;;1.15;1.05;;;;;;;9.17;92.73;99035.00;6288427;22;20065;-77
2022/05/24 01:39:22;;;;;;;1.00;0.80;;;;;;;9.16;92.87;99030.63;6262718;22;19991;-77
2022/05/24 01:41:48;;;;;;;5.45;1.13;;;;;;;9.19;93.16;99035.50;6265018;22;20004;-77
2022/05/24 01:44:22;;;;;;;5.93;1.02;;;;;;;9.21;92.56;99035.22;6263913;22;20031;-77
2022/05/24 01:46:48;;;;;;;4.55;0.98;;;;;;;9.23;92.58;99044.75;6288665;22;20078;-77
2022/05/24 01:49:18;;;;;;;5.03;0.73;;;;;;;9.22;92.55;99037.66;6236983;22;20026;-75
2022/05/24 01:51:53;;;;;;;2.03;0.80;;;;;;;9.16;92.56;99033.38;6259717;22;19991;-77
2022/05/24 01:54:20;;;;;;;1.38;0.80;;;;;;;9.09;92.50;99032.91;6288198;22;20055;-76
2022/05/24 01:56:51;;;;;;;2.58;0.95;;;;;;;9.11;92.92;99043.53;6265079;22;20023;-76
2022/05/24 01:59:18;;;;;;;5.18;0.95;;;;;;;9.05;93.23;99040.88;6290619;22;19994;-76
2022/05/24 02:01:50;;;;;;;5.35;1.13;;;;;;;8.96;93.22;99045.31;6264566;22;20006;-76
2022/05/24 02:04:18;;;;;;;2.35;0.88;;;;;;;8.84;93.80;99042.97;6291769;22;20000;-74
2022/05/24 02:06:44;;;;;;;2.42;0.88;;;;;;;8.66;94.14;99038.25;6238103;22;20378;-75
2022/05/24 02:09:12;;;;;;;1.05;0.57;;;;;;;8.60;94.69;99037.50;6262449;22;20020;-75
2022/05/24 02:11:38;;;;;;;9.57;1.00;;;;;;;8.56;95.09;99039.16;6264317;22;20011;-76
2022/05/24 02:14:16;;;;;;;3.17;1.00;;;;;;;8.50;96.04;99038.41;6289749;22;20033;-76
2022/05/24 02:17:02;;;;;;;1.88;0.80;;;;;;;8.48;96.50;99035.13;6288684;22;20000;-77
2022/05/24 02:19:32;;;;;;;2.47;0.70;;;;;;;8.59;96.89;99043.25;6239230;22;20054;-75
2022/05/24 02:22:03;;;;;;;2.65;1.15;;;;;;;8.64;96.19;99038.53;6263246;22;20054;-76
2022/05/24 02:24:28;;;;;;;3.45;1.17;;;;;;;8.74;95.67;99040.34;6261255;22;20004;-75
2022/05/24 02:26:54;;;;;;;1.45;0.70;;;;;;;8.84;95.69;99047.63;6291048;22;20094;-76
2022/05/24 02:29:22;;;;;;;2.25;0.90;;;;;;;8.85;95.26;99047.34;6236974;22;20102;-76
2022/05/24 02:31:50;;;;;;;5.53;1.00;;;;;;;8.93;94.66;99050.53;6288152;22;19998;-75
2022/05/24 02:34:15;;;;;;;5.68;1.00;;;;;;;8.90;94.46;99044.53;6233645;22;20042;-75
2022/05/24 02:36:41;;;;;;;5.07;1.33;;;;;;;8.95;94.53;99049.16;6234461;22;19980;-77
2022/05/24 02:39:07;;;;;;;1.75;0.90;;;;;;;8.93;94.46;99056.78;6286512;22;20019;-75
2022/05/24 02:41:34;;;;;;;5.53;1.05;;;;;;;8.98;94.30;99059.47;6258683;22;20006;-75
2022/05/24 02:44:03;;;;;;;2.08;0.70;;;;;;;8.97;94.52;99057.84;6258737;22;20008;-75
2022/05/24 02:46:30;;;;;;;7.07;1.00;;;;;;;8.96;94.30;99058.94;6286583;22;20007;-75
2022/05/24 02:48:56;;;;;;;2.03;0.85;;;;;;;8.93;94.62;99058.72;6258730;22;20094;-76
2022/05/24 02:51:22;;;;;;;4.35;1.30;;;;;;;8.86;94.54;99057.16;6285156;22;20034;-75
2022/05/24 02:53:48;;;;;;;0.80;0.73;;;;;;;8.74;94.27;99059.44;6259939;22;20474;-76
2022/05/24 02:56:14;;;;;;;3.70;1.02;;;;;;;8.67;95.00;99069.84;6232625;22;20008;-76
2022/05/24 02:58:40;;;;;;;1.38;0.82;;;;;;;8.56;95.22;99069.94;6234229;22;20004;-75
2022/05/24 03:01:24;;;;;;;1.80;1.00;;;;;;;8.46;95.55;99074.69;6231231;22;19988;-77
2022/05/24 03:03:51;;;;;;;1.20;0.63;;;;;;;8.35;96.03;99063.84;6261263;22;20411;-77
2022/05/24 03:06:17;;;;;;;2.03;0.75;;;;;;;8.31;96.13;99067.38;6261937;22;20015;-75
2022/05/24 03:11:27;;;;;;;1.42;0.65;;;;;;;8.28;96.98;99074.25;6289473;22;19998;-75
2022/05/24 03:16:38;;;;;;;0.75;0.75;;;;;;;8.41;97.36;99080.97;6265963;22;20046;-74
2022/05/24 03:19:05;;;;;;;0.90;0.80;;;;;;;8.46;96.99;99078.22;6263487;22;20004;-77
2022/05/24 03:21:31;;;;;;;2.45;0.73;;;;;;;8.44;97.09;99077.69;6261931;22;20037;-76
2022/05/24 03:23:56;;;;;;;1.38;0.93;;;;;;;8.49;96.21;99083.09;6288021;22;20004;-75
2022/05/24 03:26:22;;;;;;;4.57;0.80;;;;;;;8.47;96.87;99077.13;6235724;22;20087;-77
2022/05/24 03:28:48;;;;;;;1.48;0.93;;;;;;;8.54;96.14;99077.59;6288119;22;20042;-76
2022/05/24 03:31:15;;;;;;;3.10;1.10;;;;;;;8.55;96.39;99087.38;6288700;22;20016;-76
2022/05/24 03:33:40;;;;;;;1.95;1.20;;;;;;;8.55;96.24;99086.59;6287180;22;20082;-77
2022/05/24 03:36:06;;;;;;;2.40;1.20;;;;;;;8.56;96.39;99099.91;6286905;22;20007;-75
2022/05/24 03:38:32;;;;;;;3.03;1.50;;;;;;;8.56;95.99;99097.19;6286467;22;20007;-74
2022/05/24 03:40:58;;;;;;;1.52;1.40;;;;;;;8.53;95.88;99091.53;6286531;22;19991;-75
2022/05/24 03:43:25;;;;;;;4.00;1.80;;;;;;;8.55;95.67;99095.56;6234358;22;20031;-74
2022/05/24 03:46:02;;;;;;;2.63;2.00;;;;;;;8.56;96.10;99099.91;6259704;22;20003;-74
2022/05/24 03:48:28;;;;;;;2.75;2.13;;;;;;;8.58;95.48;99098.84;6260955;22;19995;-76
2022/05/24 03:50:55;;;;;;;3.88;2.42;;;;;;;8.59;95.48;99106.72;6259863;22;20479;-74
2022/05/24 03:53:20;;;;;;;3.15;2.10;;;;;;;8.58;95.73;99112.44;6285563;22;20011;-73
2022/05/24 03:55:46;;;;;;;3.85;1.95;;;;;;;8.56;95.87;99102.66;6232988;22;20008;-75
2022/05/24 03:58:11;;;;;;;5.45;2.05;;;;;;;8.55;95.21;99105.66;6259624;22;20017;-74
2022/05/24 04:00:40;;;;;;;2.30;1.77;;;;;;;8.54;95.85;99112.19;6233103;22;20439;-73
2022/05/24 04:03:06;;;;;;;1.90;1.63;;;;;;;8.53;96.09;99114.13;6285120;22;20628;-76
2022/05/24 04:05:33;;;;;;;3.00;1.70;;;;;;;8.47;95.52;99103.53;6284947;22;20099;-76
2022/05/24 04:07:59;;;;;;;3.08;2.35;;;;;;;8.37;95.67;99112.59;6252163;23;20032;-75
2022/05/24 04:10:25;;;;;;;4.47;2.35;;;;;;;8.11;95.93;99107.28;6230817;23;20038;-75
2022/05/24 04:12:51;;;;;;;6.20;1.92;;;;;;;8.06;96.11;99114.69;6206414;23;20000;-74
2022/05/24 04:15:17;;;;;;;4.25;1.90;;;;;;;8.00;96.89;99122.06;6205915;23;20307;-75
2022/05/24 04:17:43;;;;;;;3.85;1.65;;;;;;;7.94;97.75;99117.75;6256759;22;20008;-75
2022/05/24 04:20:09;;;;;;;4.90;2.20;;;;;;;7.92;98.25;99122.66;6254816;23;20011;-74
2022/05/24 04:22:35;;;;;;;5.13;1.70;;;;;;;7.92;98.87;99117.22;6256307;22;20004;-75
2022/05/24 04:25:01;;;;;;;6.25;2.00;;;;;;;7.91;99.24;99112.84;6256483;23;20008;-73
2022/05/24 04:27:27;;;;;;;5.15;2.05;;;;;;;7.92;98.96;99131.63;6256259;23;20012;-74
2022/05/24 04:29:53;;;;;;;2.25;2.03;;;;;;;7.94;99.09;99123.19;6229838;23;20035;-77
2022/05/24 04:32:20;;;;;;;4.85;2.17;;;;;;;7.96;99.38;99129.97;6259142;22;20004;-75
2022/05/24 04:34:46;;;;;;;3.95;2.72;;;;;;;8.00;98.82;99131.06;6257051;23;20004;-75
2022/05/24 04:37:11;;;;;;;3.35;2.65;;;;;;;8.00;99.02;99133.78;6258925;23;20004;-76
2022/05/24 04:39:37;;;;;;;4.47;2.70;;;;;;;7.99;98.95;99125.91;6257635;22;20007;-74
2022/05/24 04:42:18;;;;;;;4.72;2.75;;;;;;;7.94;99.02;99129.44;6257143;22;20000;-75
2022/05/24 04:44:49;;;;;;;4.82;3.28;;;;;;;7.86;98.39;99138.19;6232454;23;20008;-76
2022/05/24 04:47:16;;;;;;;5.70;2.63;;;;;;;7.82;98.94;99137.94;6255508;22;20087;-75
2022/05/24 04:49:46;;;;;;;4.97;3.10;;;;;;;7.72;99.23;99137.97;6253257;23;20027;-76
2022/05/24 04:52:12;;;;;;;9.65;3.35;;;;;;;7.72;99.33;99146.13;6227308;23;20472;-75
2022/05/24 04:54:40;;;;;;;3.80;3.45;;;;;;;7.70;99.65;99145.63;6258041;22;19988;-76
2022/05/24 04:57:07;;;;;;;4.78;3.30;;;;;;;7.69;99.43;99150.25;6254841;22;20009;-75
2022/05/24 04:59:32;;;;;;;5.10;3.70;;;;;;;7.68;100.00;99150.50;6224547;23;20015;-74
2022/05/24 05:01:58;;;;;;;7.75;3.83;;;;;;;7.70;99.85;99151.06;6249689;23;20031;-74
2022/05/24 05:04:24;;;;;;;11.15;4.30;;;;;;;7.76;100.00;99155.38;6249570;23;20004;-74
2022/05/24 05:06:52;;;;;;;5.70;4.82;;;;;;;7.82;100.00;99165.16;6225808;23;20012;-74
2022/05/24 05:09:18;;;;;;;6.47;3.97;;;;;;;7.90;100.00;99171.94;6222618;23;20015;-72
2022/05/24 05:11:44;;;;;;;6.45;4.60;;;;;;;7.91;99.58;99167.31;6251885;22;20498;-73
2022/05/24 05:14:10;;;;;;;4.30;3.90;;;;;;;7.90;99.88;99182.00;6252898;22;20019;-74
2022/05/24 05:16:36;;;;;;;6.45;4.32;;;;;;;7.87;99.37;99177.94;6252821;23;20015;-74
2022/05/24 05:19:09;;;;;;;7.72;4.95;;;;;;;7.86;99.23;99179.03;6253183;23;20014;-74
2022/05/24 05:21:37;;;;;;;10.20;5.65;;;;;;;7.88;99.58;99184.19;6253197;23;20068;-74
2022/05/24 05:24:04;;;;;;;11.57;6.13;;;;;;;7.96;99.56;99191.78;6228503;23;20064;-74
2022/05/24 05:26:30;;;;;;;10.15;6.13;;;;;;;8.12;100.00;99196.06;6250419;23;20327;-74
2022/05/24 05:28:56;;;;;;;12.23;6.75;;;;;;;8.25;99.37;99197.38;6252743;23;20011;-75
2022/05/24 05:31:26;;;;;;;9.40;6.65;;;;;;;8.41;98.38;99198.09;6252255;23;20007;-73
2022/05/24 05:33:57;;;;;;;8.45;6.07;;;;;;;8.52;97.66;99199.66;6227377;23;20369;-75
2022/05/24 05:36:23;;;;;;;8.50;6.03;;;;;;;8.62;97.38;99198.00;6252421;22;20008;-75
2022/05/24 05:38:49;;;;;;;11.68;5.93;;;;;;;8.74;97.11;99206.63;6252179;22;20058;-74
2022/05/24 05:41:28;;;;;;;9.20;6.43;;;;;;;8.82;96.31;99214.19;6252896;23;20008;-73
2022/05/24 05:43:54;;;;;;;9.32;6.38;;;;;;;8.84;95.31;99212.00;6251885;23;20000;-75
2022/05/24 05:46:20;;;;;;;11.88;6.18;;;;;;;8.85;95.80;99219.09;6252769;22;20008;-75
2022/05/24 05:48:46;;;;;;;16.33;7.00;;;;;;;8.90;95.51;99219.03;6226446;23;20008;-75
2022/05/24 05:51:15;;;;;;;7.80;5.95;;;;;;;9.06;95.74;99221.66;6252273;23;20012;-74
2022/05/24 05:53:41;;;;;;;7.15;5.85;;;;;;;9.24;95.04;99225.56;6252118;23;20004;-74
2022/05/24 05:56:13;;;;;;;9.85;6.40;;;;;;;9.50;94.81;99239.00;6253841;23;20002;-75
2022/05/24 05:58:39;;;;;;;8.50;6.55;;;;;;;9.72;93.25;99233.03;6253018;23;20003;-75
2022/05/24 06:01:04;;;;;;;8.23;6.10;;;;;;;9.95;92.55;99229.50;6255593;22;20000;-75
2022/05/24 06:03:30;;;;;;;7.68;5.72;;;;;;;10.15;91.31;99233.09;6228456;23;20008;-74
2022/05/24 06:06:00;;;;;;;9.30;5.38;;;;;;;10.29;89.37;99242.22;6202354;23;20535;-75
2022/05/24 06:08:27;;;;;;;14.55;5.43;;;;;;;10.44;88.68;99240.38;6268703;22;20034;-75
2022/05/24 06:10:53;;;;;;;10.23;5.13;;;;;;;10.63;87.89;99252.16;6206975;22;20004;-75
2022/05/24 06:13:19;;;;;;;8.73;5.95;;;;;;;10.40;86.09;99250.31;6207341;22;20011;-74
2022/05/24 06:15:49;;;;;;;8.57;5.22;;;;;;;10.17;86.96;99263.66;6284780;22;20010;-76
2022/05/24 06:18:15;;;;;;;14.50;7.25;;;;;;;9.99;87.51;99269.88;6257038;22;20007;-73
2022/05/24 06:20:45;;;;;;;7.63;5.55;;;;;;;9.83;87.99;99275.50;6228798;22;20065;-74
2022/05/24 06:23:10;;;;;;;9.32;5.93;;;;;;;9.79;88.08;99280.72;6257391;22;20015;-75
2022/05/24 06:25:36;;;;;;;10.13;6.57;;;;;;;9.81;88.42;99266.78;6232006;22;19995;-75
2022/05/24 06:28:02;;;;;;;7.72;5.97;;;;;;;10.10;88.24;99287.78;6206889;22;20011;-74
2022/05/24 06:30:28;;;;;;;8.32;6.00;;;;;;;10.47;87.58;99284.34;6256917;22;20003;-75
2022/05/24 06:32:54;;;;;;;12.82;5.65;;;;;;;10.96;84.94;99290.50;6228757;22;20007;-75
2022/05/24 06:35:20;;;;;;;10.38;6.10;;;;;;;11.10;83.50;99285.13;6230586;22;20035;-77
2022/05/24 06:37:48;;;;;;;9.93;5.50;;;;;;;11.14;82.57;99293.53;6254899;22;20118;-77
2022/05/24 06:40:16;;;;;;;7.63;5.95;;;;;;;11.25;82.39;99295.00;6231118;22;20433;-74
2022/05/24 06:42:42;;;;;;;7.22;5.20;;;;;;;11.35;82.09;99297.56;6283412;22;20058;-75
2022/05/24 06:45:11;;;;;;;13.23;5.28;;;;;;;11.32;81.62;99302.84;6229854;22;20030;-75
2022/05/24 06:47:37;;;;;;;8.45;5.07;;;;;;;11.43;82.65;99311.69;6256913;22;20003;-76
2022/05/24 06:50:04;;;;;;;7.88;4.60;;;;;;;11.37;82.36;99316.44;6284740;22;20011;-75
2022/05/24 06:52:32;;;;;;;7.47;4.82;;;;;;;11.49;82.30;99307.75;6234818;22;20068;-75
2022/05/24 06:54:57;;;;;;;8.30;4.65;;;;;;;11.73;82.08;99306.81;6232400;22;19992;-75
2022/05/24 06:57:23;;;;;;;11.15;5.13;;;;;;;11.89;80.02;99316.38;6258846;22;20334;-75
2022/05/24 07:02:34;;;;;;;7.45;4.90;;;;;;;11.90;80.34;99318.00;6261857;22;20019;-75
2022/05/24 07:05:00;;;;;;;5.97;4.10;;;;;;;11.89;80.26;99332.81;6257866;22;20326;-75
2022/05/24 07:07:26;;;;;;;5.90;3.95;;;;;;;11.85;80.29;99340.00;6256533;22;20004;-75
2022/05/24 07:09:52;;;;;;;7.07;3.90;;;;;;;11.88;80.27;99325.69;6229610;22;20008;-75
2022/05/24 07:12:21;;;;;;;4.80;3.97;;;;;;;11.91;80.37;99338.00;6232067;22;20387;-74
2022/05/24 07:14:49;;;;;;;4.35;2.97;;;;;;;11.82;79.47;99341.41;6228833;22;20008;-74
2022/05/24 07:17:17;;;;;;;7.95;3.40;;;;;;;11.82;79.50;99354.31;6206965;22;20007;-75
2022/05/24 07:19:43;;;;;;;3.65;2.70;;;;;;;11.77;79.17;99348.91;6252468;22;20023;-74
2022/05/24 07:22:08;;;;;;;5.82;3.17;;;;;;;11.64;79.02;99356.00;6257284;22;20011;-75
2022/05/24 07:24:35;;;;;;;8.00;2.70;;;;;;;11.59;79.17;99361.53;6253419;22;20334;-75
2022/05/24 07:27:01;;;;;;;4.70;2.47;;;;;;;11.82;79.03;99365.25;6256173;22;20298;-74
2022/05/24 07:29:31;;;;;;;4.57;3.20;;;;;;;12.35;77.55;99361.31;6254334;22;20033;-75
2022/05/24 07:31:57;;;;;;;7.22;4.00;;;;;;;12.88;75.74;99362.72;6253643;22;20488;-75
2022/05/24 07:34:23;;;;;;;9.95;3.00;;;;;;;13.35;74.48;99371.56;6229410;22;20003;-75
2022/05/24 07:36:48;;;;;;;5.40;3.42;;;;;;;13.44;73.59;99358.72;6203398;22;20011;-75
2022/05/24 07:39:14;;;;;;;5.72;2.85;;;;;;;13.52;71.71;99361.84;6226645;22;19992;-74
2022/05/24 07:47:09;;;;;;;6.20;2.90;;;;;;;14.08;69.19;99376.94;6260189;22;20081;-74
2022/05/24 07:49:36;;;;;;;4.75;3.05;;;;;;;13.96;67.33;99373.97;6205579;22;20035;-74
2022/05/24 07:52:01;;;;;;;6.25;2.55;;;;;;;13.89;69.28;99390.09;6230436;22;20087;-74
2022/05/24 07:54:27;;;;;;;3.42;2.25;;;;;;;13.66;69.05;99389.28;6227314;22;20004;-74
2022/05/24 07:56:52;;;;;;;3.25;2.50;;;;;;;13.82;69.55;99395.19;6252126;22;20357;-75
2022/05/24 07:59:18;;;;;;;2.75;2.20;;;;;;;14.04;66.93;99392.41;6280295;22;20059;-75
2022/05/24 08:01:44;;;;;;;3.72;2.00;;;;;;;14.43;66.95;99396.34;6228648;22;20503;-74
2022/05/24 08:04:09;;;;;;;1.92;1.73;;;;;;;14.83;65.75;99398.28;6229050;22;19996;-75
2022/05/24 08:06:35;;;;;;;2.72;1.73;;;;;;;15.38;63.23;99394.19;6251656;22;20011;-74
2022/05/24 08:09:01;;;;;;;3.28;2.03;;;;;;;15.78;61.23;99396.78;6277963;22;20516;-75
2022/05/24 08:11:27;;;;;;;2.05;1.30;;;;;;;16.10;61.07;99402.91;6228079;22;19992;-75
2022/05/24 08:13:52;;;;;;;1.90;1.52;;;;;;;16.04;59.22;99404.22;6203601;22;20015;-74
2022/05/24 08:16:17;;;;;;;3.08;1.48;;;;;;;15.33;61.12;99397.09;6279406;22;20034;-74
2022/05/24 08:18:44;;;;;;;3.92;1.25;;;;;;;14.86;62.26;99410.63;6222557;22;20031;-75
2022/05/24 08:21:10;;;;;;;1.30;1.20;;;;;;;14.40;63.15;99405.25;6228580;22;20112;-74
2022/05/24 08:23:37;;;;;;;7.13;1.40;;;;;;;14.37;63.08;99405.03;6281889;22;20030;-75
2022/05/24 08:26:02;;;;;;;11.13;1.48;;;;;;;14.75;64.49;99405.41;6276323;22;20434;-74
2022/05/24 08:28:28;;;;;;;7.05;1.23;;;;;;;15.47;62.33;99408.75;6226222;22;20015;-75
2022/05/24 08:30:54;;;;;;;1.83;1.52;;;;;;;15.87;60.03;99405.88;6252335;22;20003;-74
2022/05/24 08:33:21;;;;;;;1.60;1.30;;;;;;;15.88;61.42;99410.22;6251829;22;20004;-75
2022/05/24 08:35:52;;;;;;;2.30;0.80;;;;;;;15.67;58.78;99417.53;6252194;22;20430;-76
2022/05/24 08:38:18;;;;;;;2.05;1.08;;;;;;;15.43;60.62;99405.03;6253064;22;20050;-75
2022/05/24 08:40:45;;;;;;;1.35;0.75;;;;;;;15.17;60.73;99416.84;6227677;22;20030;-75
2022/05/24 08:43:33;;;;;;;2.30;1.60;;;;;;;15.00;60.54;99412.09;6249745;22;19984;-75
2022/05/24 08:49:05;;;;;;;2.15;1.10;;;;;;;14.81;61.37;99420.63;6280958;22;20449;-75
2022/05/24 08:51:38;;;;;;;1.90;1.70;;;;;;;14.75;61.62;99415.63;6281214;22;20012;-76
2022/05/24 08:54:08;;;;;;;2.22;1.23;;;;;;;14.86;63.70;99427.13;6280599;22;20090;-75
2022/05/24 08:56:50;;;;;;;1.33;1.00;;;;;;;15.39;61.66;99428.03;6277250;22;20398;-74
2022/05/24 08:59:28;;;;;;;2.50;0.80;;;;;;;16.08;58.33;99427.25;6252669;22;20045;-74
2022/05/24 09:01:56;;;;;;;1.58;0.60;;;;;;;16.36;54.58;99426.84;6280960;22;20004;-75
2022/05/24 09:04:22;;;;;;;0.52;0.50;;;;;;;16.52;52.92;99440.94;6256124;22;20053;-74
2022/05/24 09:07:00;;;;;;;2.50;0.88;;;;;;;16.81;52.51;99436.59;6273812;22;20046;-73
2022/05/24 09:09:26;;;;;;;2.17;0.47;;;;;;;16.95;51.33;99441.91;6245982;23;20027;-73
2022/05/24 09:12:14;;;;;;;1.77;0.80;;;;;;;16.88;53.76;99434.97;6248047;23;20004;-73
2022/05/24 09:14:39;;;;;;;1.13;0.85;;;;;;;16.69;53.56;99440.03;6244625;23;20734;-74
2022/05/24 09:17:23;;;;;;;5.18;1.08;;;;;;;17.04;53.04;99442.66;6246080;23;20054;-73
2022/05/24 09:19:49;;;;;;;1.33;0.57;;;;;;;17.41;51.49;99431.88;6243983;23;20074;-73
2022/05/24 09:22:14;;;;;;;0.65;0.40;;;;;;;17.46;48.11;99439.97;6248813;23;20004;-72
2022/05/24 09:24:47;;;;;;;0.93;0.52;;;;;;;17.46;50.12;99439.97;6248625;22;20392;-73
2022/05/24 09:27:15;;;;;;;0.43;0.30;;;;;;;17.72;50.00;99447.25;6250825;22;20003;-72
2022/05/24 09:30:04;;;;;;;0.85;0.70;;;;;;;17.67;50.11;99452.97;6247175;23;20008;-73
2022/05/24 09:32:32;;;;;;;3.30;0.75;;;;;;;17.47;51.80;99458.16;6247909;23;20058;-72
2022/05/24 09:35:16;;;;;;;0.90;0.80;;;;;;;17.25;51.64;99468.38;6250958;22;20000;-72
2022/05/24 09:37:45;;;;;;;5.40;0.93;;;;;;;16.96;52.55;99462.88;6248553;22;20004;-71
2022/05/24 09:40:23;;;;;;;1.25;0.70;;;;;;;16.98;52.89;99463.34;6249054;23;20362;-72
2022/05/24 09:42:49;;;;;;;4.53;0.82;;;;;;;17.10;52.30;99477.25;6248994;22;19992;-72
2022/05/24 09:45:17;;;;;;;1.95;0.73;;;;;;;17.25;51.72;99473.91;6244147;23;20316;-73
2022/05/24 09:47:46;;;;;;;1.40;0.77;;;;;;;17.24;52.32;99472.31;6251472;22;20014;-72
2022/05/24 09:50:14;;;;;;;3.13;0.60;;;;;;;16.89;53.02;99472.47;6250708;22;20033;-73
2022/05/24 09:52:41;;;;;;;2.78;0.70;;;;;;;16.08;56.40;99465.03;6248805;23;20008;-72
2022/05/24 09:55:07;;;;;;;2.22;0.75;;;;;;;15.33;60.62;99468.69;6248857;22;20008;-72
2022/05/24 09:57:33;;;;;;;0.85;0.70;;;;;;;15.11;62.04;99464.94;6250302;23;20483;-73
2022/05/24 10:00:20;;;;;;;2.03;0.60;;;;;;;15.27;60.98;99470.00;6247509;23;20087;-74
2022/05/24 10:02:47;;;;;;;1.40;0.75;;;;;;;15.94;61.64;99470.72;6252029;22;20000;-71
2022/05/24 10:05:24;;;;;;;3.90;0.75;;;;;;;17.28;57.69;99476.00;6250704;23;20008;-73
2022/05/24 10:08:01;;;;;;;0.82;0.75;;;;;;;18.87;53.02;99479.00;6260501;22;20442;-73
2022/05/24 10:10:35;;;;;;;1.38;0.68;;;;;;;19.57;50.36;99489.16;6279212;22;20027;-71
2022/05/24 10:13:15;;;;;;;1.73;0.60;;;;;;;18.78;53.00;99486.59;6254987;22;20035;-72
2022/05/24 10:15:44;;;;;;;0.88;0.50;;;;;;;18.29;54.44;99493.59;6254437;22;20007;-73
2022/05/24 10:18:38;;;;;;;0.55;0.55;;;;;;;18.26;52.63;99499.81;6282225;22;20031;-72
2022/05/24 10:21:25;;;;;;;1.15;0.63;;;;;;;18.62;52.88;99498.31;6279595;22;19996;-72
2022/05/24 10:24:25;;;;;;;1.55;0.55;;;;;;;21.58;44.58;99498.47;6254421;22;20000;-72
2022/05/24 10:27:04;;;;;;;1.35;0.50;;;;;;;22.63;42.25;99495.81;6245073;22;20010;-72
2022/05/24 10:29:52;;;;;;;0.80;0.35;;;;;;;22.31;41.97;99501.56;6279616;22;19999;-72
2022/05/24 10:38:58;;;;;;;0.30;0.20;;;;;;;16.99;48.81;99504.41;6284166;22;20015;-71
2022/05/24 10:41:43;;;;;;;0.20;0.20;;;;;;;16.43;50.23;99515.44;6252488;22;20007;-72
2022/05/24 10:44:21;;;;;;;0.55;0.30;;;;;;;16.44;52.84;99516.25;6256095;22;20018;-72
2022/05/24 10:46:58;;;;;;;1.10;0.45;;;;;;;16.72;51.13;99511.97;6281566;22;20048;-72
2022/05/24 10:49:41;;;;;;;1.08;0.32;;;;;;;18.53;47.74;99514.25;6254354;22;19995;-72
2022/05/24 10:52:35;;;;;;;0.77;0.40;;;;;;;24.23;38.86;99528.59;6281169;22;20315;-73
2022/05/24 10:55:13;;;;;;;0.32;0.28;;;;;;;28.38;31.42;99522.56;6234754;22;20000;-73
2022/05/24 10:57:49;;;;;;;0.60;0.40;;;;;;;31.03;26.93;99525.94;6283165;22;20014;-73
2022/05/24 11:00:20;;;;;;;0.45;0.30;;;;;;;32.05;24.39;99541.88;6253943;22;20008;-72
2022/05/24 11:03:35;;;;;;;0.60;0.30;;;;;;;33.18;22.53;99531.28;6253819;22;19995;-71
2022/05/24 11:06:31;;;;;;;1.08;0.40;;;;;;;32.16;23.77;99526.31;6249862;22;20035;-73
2022/05/24 11:09:09;;;;;;;1.00;0.60;;;;;;;28.10;27.73;99520.69;6255021;22;20020;-73
2022/05/24 11:12:03;;;;;;;0.63;0.40;;;;;;;24.98;33.14;99522.19;6285020;22;20334;-73
2022/05/24 11:15:13;;;;;;;1.25;0.40;;;;;;;26.48;31.96;99518.72;6251923;22;20010;-72
2022/05/24 11:17:39;;;;;;;1.40;0.40;;;;;;;25.91;32.31;99522.88;6188609;23;20009;-73
2022/05/24 11:20:05;;;;;;;1.77;0.50;;;;;;;23.74;35.26;99533.09;6163363;23;20013;-73
2022/05/24 11:22:46;;;;;;;0.88;0.35;;;;;;;21.73;38.30;99525.44;6233960;22;20438;-73
2022/05/24 11:25:22;;;;;;;0.70;0.43;;;;;;;21.99;39.98;99521.22;6254481;22;20007;-73
2022/05/24 11:27:57;;;;;;;1.50;0.40;;;;;;;22.47;37.37;99527.41;6281065;22;19999;-73
2022/05/24 11:30:28;;;;;;;2.15;0.40;;;;;;;20.32;46.49;99529.38;6257551;22;20014;-72
2022/05/24 11:33:03;;;;;;;3.35;0.60;;;;;;;17.61;57.81;99536.13;6276878;22;20007;-71
2022/05/24 11:35:35;;;;;;;0.47;0.30;;;;;;;16.10;62.98;99535.28;6252290;22;20027;-73
2022/05/24 11:38:35;;;;;;;0.90;0.40;;;;;;;18.16;60.30;99530.69;6251410;22;20000;-72
2022/05/24 11:41:31;;;;;;;0.82;0.40;;;;;;;22.55;47.52;99544.25;6252724;22;20095;-73
2022/05/24 11:44:01;;;;;;;0.52;0.35;;;;;;;25.86;41.38;99542.84;6240149;22;20087;-73
2022/05/24 11:46:37;;;;;;;0.77;0.30;;;;;;;28.76;34.21;99550.09;6278729;22;19996;-72
2022/05/24 11:49:10;;;;;;;0.90;0.50;;;;;;;30.39;28.68;99553.03;6281148;22;20012;-71
2022/05/24 11:51:44;;;;;;;2.88;0.30;;;;;;;33.14;26.73;99563.75;6280806;22;20077;-72
2022/05/24 11:54:15;;;;;;;1.38;0.30;;;;;;;33.95;23.57;99564.13;6279864;22;20014;-72
2022/05/24 11:56:55;;;;;;;0.20;0.20;;;;;;;34.79;21.81;99549.94;6253257;22;19996;-74
2022/05/24 11:59:43;;;;;;;0.60;0.30;;;;;;;32.71;23.04;99537.28;6252432;22;20011;-72
2022/05/24 12:02:33;;;;;;;1.27;0.40;;;;;;;32.68;22.00;99546.63;6281630;22;20031;-72
2022/05/24 12:07:55;;;;;;;0.38;0.20;;;;;;;33.77;21.40;99553.28;6278393;22;20062;-71
2022/05/24 12:10:20;;;;;;;1.33;0.30;;;;;;;33.95;19.83;99558.47;6253910;22;20026;-72
2022/05/24 12:12:46;;;;;;;1.15;0.32;;;;;;;32.89;20.68;99548.19;6255130;22;20003;-71
2022/05/24 12:15:21;;;;;;;1.30;0.40;;;;;;;32.81;20.56;99553.22;6254438;22;20053;-71
2022/05/24 12:18:11;;;;;;;0.82;0.30;;;;;;;31.77;22.49;99544.81;6252403;22;20023;-71
2022/05/24 12:20:37;;;;;;;0.93;0.28;;;;;;;31.11;22.54;99544.34;6251323;22;20004;-70